Time;durP1;ratioP1;P1;durP2;ratioP2;P2;SDS_P1;SDS_P2;PMS_P1;PMS_P2;Temp;Humidity;BMP_temperature;BMP_pressure;BME280_temperature;BME280_humidity;BME280_pressure;Samples;Min_cycle;Max_cycle;Signal;HPM_P1;HPM_P2
2022/08/07 00:01:33;;;;;;;11.70;4.03;;;;;;;;;;4982673;28;20037;-45
2022/08/07 00:03:59;;;;;;;10.18;3.83;;;;;;;;;;4990206;28;20049;-48
2022/08/07 00:06:26;;;;;;;14.23;4.17;;;;;;;;;;4987928;28;20039;-50
2022/08/07 00:08:54;;;;;;;10.85;4.13;;;;;;;;;;4995246;28;20221;-46
2022/08/07 00:11:20;;;;;;;8.52;4.25;;;;;;;;;;4995518;28;20033;-49
2022/08/07 00:13:47;;;;;;;10.43;4.85;;;;;;;;;;4988740;28;20071;-48
2022/08/07 00:16:14;;;;;;;9.95;4.30;;;;;;;;;;4984523;28;20050;-50
2022/08/07 00:18:40;;;;;;;9.43;4.40;;;;;;;;;;5001644;28;20072;-45
2022/08/07 00:21:09;;;;;;;10.55;5.05;;;;;;;;;;4977996;28;20105;-48
2022/08/07 00:23:36;;;;;;;12.00;4.53;;;;;;;;;;4996295;28;20068;-46
2022/08/07 00:26:05;;;;;;;8.88;4.65;;;;;;;;;;5004501;28;20040;-47
2022/08/07 00:28:32;;;;;;;8.93;4.20;;;;;;;;;;4998767;28;20038;-49
2022/08/07 00:30:58;;;;;;;11.10;4.00;;;;;;;;;;4991821;28;20038;-49
2022/08/07 00:33:27;;;;;;;8.95;3.95;;;;;;;;;;5003389;28;20161;-45
2022/08/07 00:35:53;;;;;;;9.65;3.97;;;;;;;;;;4990283;28;20045;-45
2022/08/07 00:38:20;;;;;;;9.48;4.60;;;;;;;;;;4999897;28;20068;-49
2022/08/07 00:40:47;;;;;;;8.95;4.10;;;;;;;;;;4990717;28;20075;-46
2022/08/07 00:43:15;;;;;;;11.90;3.97;;;;;;;;;;4994759;28;20038;-48
2022/08/07 00:45:41;;;;;;;8.20;3.88;;;;;;;;;;5009777;28;20081;-49
2022/08/07 00:48:08;;;;;;;8.60;3.47;;;;;;;;;;4999891;28;20091;-49
2022/08/07 00:50:35;;;;;;;8.60;3.63;;;;;;;;;;4994060;28;20056;-47
2022/08/07 00:53:02;;;;;;;7.40;3.63;;;;;;;;;;4993143;28;20108;-47
2022/08/07 00:55:29;;;;;;;7.60;3.20;;;;;;;;;;4994271;28;20788;-44
2022/08/07 00:57:56;;;;;;;7.85;3.25;;;;;;;;;;4994605;28;20544;-48
2022/08/07 01:00:24;;;;;;;21.40;4.93;;;;;;;;;;4988648;28;20660;-45
2022/08/07 01:02:51;;;;;;;7.78;2.78;;;;;;;;;;4988555;28;20046;-46
2022/08/07 01:05:20;;;;;;;8.35;3.05;;;;;;;;;;5018841;28;20046;-45
2022/08/07 01:07:46;;;;;;;10.07;3.10;;;;;;;;;;4986569;28;20684;-45
2022/08/07 01:10:14;;;;;;;8.55;3.42;;;;;;;;;;4997016;28;20046;-45
2022/08/07 01:12:41;;;;;;;7.50;3.03;;;;;;;;;;4988740;28;20110;-46
2022/08/07 01:15:08;;;;;;;7.93;3.00;;;;;;;;;;5000460;28;20052;-48
2022/08/07 01:17:36;;;;;;;6.45;3.03;;;;;;;;;;4988672;28;20080;-47
2022/08/07 01:20:05;;;;;;;9.90;3.30;;;;;;;;;;5000318;28;20049;-46
2022/08/07 01:22:32;;;;;;;7.63;2.70;;;;;;;;;;4991302;28;20144;-47
2022/08/07 01:24:59;;;;;;;7.90;3.00;;;;;;;;;;5003161;28;20045;-45
2022/08/07 01:27:26;;;;;;;8.88;2.65;;;;;;;;;;4987893;28;20487;-45
2022/08/07 01:29:52;;;;;;;9.68;3.10;;;;;;;;;;4994175;28;20038;-48
2022/08/07 01:32:19;;;;;;;7.70;2.50;;;;;;;;;;4990953;28;21275;-45
2022/08/07 01:34:46;;;;;;;7.63;2.72;;;;;;;;;;5000004;28;20069;-47
2022/08/07 01:37:16;;;;;;;8.02;3.00;;;;;;;;;;4981944;28;21962;-46
2022/08/07 01:39:44;;;;;;;6.95;3.20;;;;;;;;;;4999593;28;20033;-49
2022/08/07 01:42:10;;;;;;;6.05;2.55;;;;;;;;;;4992397;28;20038;-47
2022/08/07 01:44:37;;;;;;;7.70;2.60;;;;;;;;;;4974898;28;20041;-45
2022/08/07 01:47:03;;;;;;;6.57;2.60;;;;;;;;;;4993324;28;20043;-46
2022/08/07 01:49:30;;;;;;;6.95;2.75;;;;;;;;;;4996654;28;20678;-47
2022/08/07 01:51:57;;;;;;;6.22;2.72;;;;;;;;;;4989372;28;20202;-45
2022/08/07 01:54:25;;;;;;;9.30;2.40;;;;;;;;;;4993070;28;20043;-44
2022/08/07 01:56:54;;;;;;;7.37;2.70;;;;;;;;;;4994769;28;20042;-49
2022/08/07 01:59:24;;;;;;;8.75;2.65;;;;;;;;;;4996443;28;20092;-48
2022/08/07 02:01:54;;;;;;;9.45;2.95;;;;;;;;;;4991207;28;20395;-45
2022/08/07 02:04:26;;;;;;;7.53;2.60;;;;;;;;;;4994104;28;20034;-46
2022/08/07 02:06:53;;;;;;;8.93;2.70;;;;;;;;;;4984735;28;20042;-47
2022/08/07 02:09:20;;;;;;;7.37;2.60;;;;;;;;;;4995540;28;20042;-49
2022/08/07 02:11:49;;;;;;;9.10;2.63;;;;;;;;;;4993066;28;20128;-48
2022/08/07 02:14:18;;;;;;;8.27;2.70;;;;;;;;;;4992723;28;20065;-46
2022/08/07 02:16:47;;;;;;;7.55;2.75;;;;;;;;;;4991681;28;20414;-47
2022/08/07 02:19:14;;;;;;;10.27;2.72;;;;;;;;;;4994314;28;20057;-46
2022/08/07 02:21:41;;;;;;;7.43;2.90;;;;;;;;;;4994773;28;20042;-47
2022/08/07 02:24:08;;;;;;;8.85;2.58;;;;;;;;;;4996844;28;20073;-47
2022/08/07 02:26:36;;;;;;;9.52;3.17;;;;;;;;;;4979433;28;20430;-46
2022/08/07 02:29:03;;;;;;;7.97;2.83;;;;;;;;;;4989581;28;20042;-48
2022/08/07 02:31:31;;;;;;;7.45;2.88;;;;;;;;;;4981944;28;20081;-48
2022/08/07 02:33:58;;;;;;;8.30;3.10;;;;;;;;;;4973668;28;20088;-48
2022/08/07 02:36:26;;;;;;;7.55;2.53;;;;;;;;;;4980753;28;20121;-46
2022/08/07 02:38:53;;;;;;;10.52;2.47;;;;;;;;;;4972463;28;20038;-48
2022/08/07 02:41:19;;;;;;;7.65;2.53;;;;;;;;;;4980926;28;20042;-48
2022/08/07 02:43:47;;;;;;;6.93;3.00;;;;;;;;;;4987380;28;20039;-46
2022/08/07 02:46:14;;;;;;;7.93;3.00;;;;;;;;;;5000351;28;20068;-45
2022/08/07 02:51:32;;;;;;;6.93;2.45;;;;;;;;;;5067924;23;20057;-60
2022/08/07 02:54:00;;;;;;;7.70;3.20;;;;;;;;;;4960995;28;20140;-60
2022/08/07 02:56:29;;;;;;;7.93;3.08;;;;;;;;;;4976558;28;20813;-60
2022/08/07 02:58:56;;;;;;;8.80;2.57;;;;;;;;;;4984771;28;20072;-59
2022/08/07 03:01:24;;;;;;;7.47;2.67;;;;;;;;;;4985791;28;20046;-59
2022/08/07 03:03:52;;;;;;;9.20;3.67;;;;;;;;;;4988204;28;20045;-59
2022/08/07 03:06:19;;;;;;;6.32;2.83;;;;;;;;;;4988078;28;20116;-59
2022/08/07 03:08:47;;;;;;;6.72;2.65;;;;;;;;;;4978345;28;20038;-60
2022/08/07 03:11:14;;;;;;;9.00;2.87;;;;;;;;;;4997526;28;20052;-59
2022/08/07 03:13:41;;;;;;;6.28;2.53;;;;;;;;;;4999185;28;20042;-59
2022/08/07 03:16:08;;;;;;;7.50;2.72;;;;;;;;;;4988239;28;20041;-59
2022/08/07 03:18:35;;;;;;;6.75;2.50;;;;;;;;;;4993074;28;20053;-60
2022/08/07 03:21:02;;;;;;;7.50;2.70;;;;;;;;;;5009037;28;20037;-59
2022/08/07 03:23:28;;;;;;;7.90;2.87;;;;;;;;;;4995823;28;20042;-59
2022/08/07 03:25:57;;;;;;;5.97;2.20;;;;;;;;;;4987456;28;20164;-60
2022/08/07 03:28:24;;;;;;;6.13;2.30;;;;;;;;;;4998128;28;20045;-59
2022/08/07 03:31:17;;;;;;;6.22;2.38;;;;;;;;;;4960331;28;20473;-59
2022/08/07 03:33:38;;;;;;;8.02;2.40;;;;;;;;;;4997155;28;20046;-60
2022/08/07 03:36:06;;;;;;;7.40;3.10;;;;;;;;;;4996158;28;20037;-60
2022/08/07 03:38:32;;;;;;;6.28;2.70;;;;;;;;;;4993137;28;20438;-59
2022/08/07 03:41:00;;;;;;;8.93;2.40;;;;;;;;;;4957649;28;20042;-59
2022/08/07 03:43:27;;;;;;;7.85;2.30;;;;;;;;;;4984037;28;20045;-59
2022/08/07 03:45:53;;;;;;;7.65;2.60;;;;;;;;;;4975392;28;20057;-59
2022/08/07 03:48:20;;;;;;;10.67;2.43;;;;;;;;;;4990231;28;20041;-59
2022/08/07 03:50:47;;;;;;;7.88;2.20;;;;;;;;;;4990758;28;20058;-59
2022/08/07 03:53:14;;;;;;;11.68;2.70;;;;;;;;;;4970566;28;20047;-59
2022/08/07 03:55:42;;;;;;;7.57;1.95;;;;;;;;;;4979466;28;20117;-59
2022/08/07 03:58:11;;;;;;;7.07;2.05;;;;;;;;;;4977624;28;20042;-59
2022/08/07 04:00:39;;;;;;;7.87;2.50;;;;;;;;;;4974619;28;20065;-59
2022/08/07 04:03:06;;;;;;;5.57;1.88;;;;;;;;;;4969413;28;20101;-60
2022/08/07 04:05:34;;;;;;;6.82;2.38;;;;;;;;;;4970514;28;20586;-59
2022/08/07 04:08:00;;;;;;;6.35;2.30;;;;;;;;;;4983212;28;20097;-60
2022/08/07 04:10:27;;;;;;;6.93;2.53;;;;;;;;;;4973337;28;20043;-60
2022/08/07 04:12:54;;;;;;;7.90;2.30;;;;;;;;;;4985798;28;20046;-60
2022/08/07 04:15:23;;;;;;;7.80;2.10;;;;;;;;;;4955819;28;20051;-59
2022/08/07 04:17:49;;;;;;;7.05;1.95;;;;;;;;;;4982605;28;20050;-60
2022/08/07 04:20:16;;;;;;;10.77;2.03;;;;;;;;;;4968701;28;20038;-60
2022/08/07 04:22:43;;;;;;;6.63;1.70;;;;;;;;;;4985244;28;20043;-60
2022/08/07 04:25:10;;;;;;;5.47;1.60;;;;;;;;;;4972125;28;20070;-60
2022/08/07 04:27:37;;;;;;;8.15;2.05;;;;;;;;;;4978095;28;20034;-58
2022/08/07 04:30:04;;;;;;;7.10;2.05;;;;;;;;;;4954986;28;20038;-59
2022/08/07 04:32:32;;;;;;;5.82;1.90;;;;;;;;;;4987434;28;20061;-59
2022/08/07 04:35:00;;;;;;;5.38;1.83;;;;;;;;;;4971260;28;20046;-60
2022/08/07 04:37:26;;;;;;;6.53;2.37;;;;;;;;;;4981238;28;20056;-60
2022/08/07 04:39:53;;;;;;;5.70;1.83;;;;;;;;;;4942503;28;20034;-60
2022/08/07 04:42:19;;;;;;;6.13;2.05;;;;;;;;;;4987732;28;20042;-60
2022/08/07 04:44:46;;;;;;;5.57;1.90;;;;;;;;;;4970506;28;20030;-60
2022/08/07 04:47:16;;;;;;;8.90;2.33;;;;;;;;;;4976549;28;20104;-59
2022/08/07 04:49:45;;;;;;;5.87;2.03;;;;;;;;;;4966140;28;20526;-60
2022/08/07 04:52:14;;;;;;;7.25;2.28;;;;;;;;;;4987197;28;20080;-60
2022/08/07 04:54:47;;;;;;;5.68;1.85;;;;;;;;;;4978095;28;20046;-60
2022/08/07 04:57:16;;;;;;;6.90;2.25;;;;;;;;;;4986087;28;20046;-59
2022/08/07 04:59:46;;;;;;;7.68;2.50;;;;;;;;;;4979608;28;20034;-60
2022/08/07 05:02:15;;;;;;;7.83;2.30;;;;;;;;;;4975037;28;20053;-60
2022/08/07 05:04:46;;;;;;;5.20;1.83;;;;;;;;;;4982477;28;20101;-59
2022/08/07 05:07:16;;;;;;;6.93;2.40;;;;;;;;;;4972948;28;20522;-59
2022/08/07 05:09:55;;;;;;;8.77;2.55;;;;;;;;;;4979065;28;20070;-60
2022/08/07 05:12:23;;;;;;;6.65;2.45;;;;;;;;;;4962989;28;20436;-60
2022/08/07 05:14:51;;;;;;;6.50;2.27;;;;;;;;;;4975265;28;20591;-60
2022/08/07 05:17:19;;;;;;;8.38;2.17;;;;;;;;;;4978676;28;20073;-59
2022/08/07 05:19:46;;;;;;;7.65;2.42;;;;;;;;;;4972921;28;20046;-59
2022/08/07 05:22:16;;;;;;;7.85;2.20;;;;;;;;;;4970115;28;20132;-59
2022/08/07 05:24:44;;;;;;;6.63;2.38;;;;;;;;;;4951059;28;20042;-60
2022/08/07 05:27:13;;;;;;;5.77;1.90;;;;;;;;;;4967444;28;20030;-60
2022/08/07 05:29:41;;;;;;;6.68;2.05;;;;;;;;;;4973988;28;20705;-60
2022/08/07 05:32:08;;;;;;;5.93;2.17;;;;;;;;;;4982721;28;20458;-59
2022/08/07 05:34:35;;;;;;;7.00;2.17;;;;;;;;;;4970738;28;20038;-59
2022/08/07 05:37:03;;;;;;;5.10;1.60;;;;;;;;;;4977535;28;20038;-59
2022/08/07 05:39:31;;;;;;;5.07;1.70;;;;;;;;;;4970606;28;20558;-60
2022/08/07 05:41:58;;;;;;;9.68;2.53;;;;;;;;;;4982953;28;20038;-59
2022/08/07 05:44:24;;;;;;;7.78;1.80;;;;;;;;;;4970969;28;20031;-59
2022/08/07 05:46:51;;;;;;;5.68;1.58;;;;;;;;;;4983801;28;20038;-60
2022/08/07 05:49:19;;;;;;;5.10;1.88;;;;;;;;;;4964668;28;20052;-60
2022/08/07 05:51:46;;;;;;;5.27;1.63;;;;;;;;;;4954807;28;20046;-60
2022/08/07 05:54:13;;;;;;;6.32;1.55;;;;;;;;;;4979467;28;20038;-59
2022/08/07 05:56:41;;;;;;;6.95;1.90;;;;;;;;;;4963478;28;20042;-59
2022/08/07 05:59:13;;;;;;;7.35;2.10;;;;;;;;;;4986024;28;20502;-60
2022/08/07 06:01:40;;;;;;;7.70;2.80;;;;;;;;;;4971878;28;20042;-60
2022/08/07 06:04:08;;;;;;;6.63;2.20;;;;;;;;;;4981938;28;20124;-60
2022/08/07 06:06:35;;;;;;;6.82;2.00;;;;;;;;;;4972299;28;20093;-61
2022/08/07 06:09:02;;;;;;;5.93;1.90;;;;;;;;;;4962814;28;20108;-60
2022/08/07 06:11:29;;;;;;;5.60;1.70;;;;;;;;;;4963785;28;20039;-60
2022/08/07 06:13:58;;;;;;;6.43;1.88;;;;;;;;;;4983368;28;20046;-60
2022/08/07 06:16:27;;;;;;;6.57;2.00;;;;;;;;;;4961439;28;20046;-60
2022/08/07 06:18:54;;;;;;;7.63;1.85;;;;;;;;;;4978967;28;20113;-60
2022/08/07 06:21:20;;;;;;;5.68;1.80;;;;;;;;;;4979648;28;20046;-60
2022/08/07 06:23:47;;;;;;;5.45;1.98;;;;;;;;;;4989108;28;20073;-60
2022/08/07 06:26:14;;;;;;;6.93;2.03;;;;;;;;;;4970847;28;20545;-61
2022/08/07 06:28:47;;;;;;;7.77;1.73;;;;;;;;;;4973531;28;20035;-60
2022/08/07 06:31:15;;;;;;;6.15;1.77;;;;;;;;;;4968823;28;20042;-60
2022/08/07 06:33:42;;;;;;;5.40;1.75;;;;;;;;;;4961267;28;20038;-61
2022/08/07 06:36:09;;;;;;;5.93;1.63;;;;;;;;;;4970910;28;20046;-60
2022/08/07 06:38:36;;;;;;;4.97;1.45;;;;;;;;;;4968496;28;20092;-60
2022/08/07 06:41:03;;;;;;;5.50;1.40;;;;;;;;;;4976546;28;20034;-59
2022/08/07 06:43:34;;;;;;;5.63;1.40;;;;;;;;;;4966545;28;20042;-59
2022/08/07 06:46:01;;;;;;;7.60;1.70;;;;;;;;;;4967957;28;20097;-60
2022/08/07 06:48:29;;;;;;;4.50;1.23;;;;;;;;;;4978660;28;20035;-60
2022/08/07 06:50:58;;;;;;;5.88;1.40;;;;;;;;;;4979535;28;20051;-60
2022/08/07 06:53:26;;;;;;;4.63;1.37;;;;;;;;;;4972093;28;20101;-61
2022/08/07 06:55:54;;;;;;;5.75;1.45;;;;;;;;;;4985747;28;20038;-60
2022/08/07 06:58:22;;;;;;;5.20;1.30;;;;;;;;;;4978998;28;20142;-60
2022/08/07 07:00:49;;;;;;;5.32;1.30;;;;;;;;;;4978780;28;20050;-60
2022/08/07 07:03:16;;;;;;;6.57;1.95;;;;;;;;;;4985110;28;20070;-60
2022/08/07 07:05:45;;;;;;;5.50;1.47;;;;;;;;;;4971899;28;20070;-60
2022/08/07 07:08:12;;;;;;;4.15;1.25;;;;;;;;;;4983449;28;20050;-61
2022/08/07 07:10:38;;;;;;;5.45;1.42;;;;;;;;;;4977565;28;20200;-60
2022/08/07 07:13:07;;;;;;;4.85;1.38;;;;;;;;;;4980607;28;20066;-60
2022/08/07 07:15:39;;;;;;;5.07;1.55;;;;;;;;;;4961726;28;20038;-59
2022/08/07 07:18:09;;;;;;;5.27;1.57;;;;;;;;;;4978053;28;20050;-59
2022/08/07 07:20:37;;;;;;;4.35;1.40;;;;;;;;;;4962375;28;20527;-60
2022/08/07 07:23:06;;;;;;;4.65;1.55;;;;;;;;;;4981266;28;20050;-59
2022/08/07 07:25:33;;;;;;;4.85;1.20;;;;;;;;;;4975528;28;20046;-58
2022/08/07 07:28:02;;;;;;;6.55;1.20;;;;;;;;;;4973095;28;20114;-59
2022/08/07 07:30:30;;;;;;;6.33;1.20;;;;;;;;;;4987173;28;20065;-59
2022/08/07 07:32:58;;;;;;;3.83;0.95;;;;;;;;;;4973211;28;20039;-59
2022/08/07 07:35:24;;;;;;;5.63;1.20;;;;;;;;;;4986621;28;20038;-60
2022/08/07 07:37:52;;;;;;;3.83;0.82;;;;;;;;;;4971642;28;20038;-61
2022/08/07 07:40:20;;;;;;;7.15;1.17;;;;;;;;;;4983722;28;20066;-60
2022/08/07 07:42:50;;;;;;;3.77;1.10;;;;;;;;;;4979886;28;20058;-59
2022/08/07 07:45:18;;;;;;;4.70;0.90;;;;;;;;;;4982718;28;20046;-59
2022/08/07 07:47:45;;;;;;;5.25;1.17;;;;;;;;;;4978474;28;20427;-59
2022/08/07 07:50:13;;;;;;;4.13;0.77;;;;;;;;;;4966240;28;21219;-59
2022/08/07 07:52:40;;;;;;;4.15;0.88;;;;;;;;;;4979847;28;20046;-60
2022/08/07 07:55:08;;;;;;;3.97;0.60;;;;;;;;;;4986779;28;20062;-61
2022/08/07 07:57:37;;;;;;;3.53;0.68;;;;;;;;;;4964594;28;20038;-59
2022/08/07 08:00:05;;;;;;;4.38;0.73;;;;;;;;;;4987391;28;20046;-60
2022/08/07 08:02:32;;;;;;;3.33;0.70;;;;;;;;;;4969916;28;20042;-59
2022/08/07 08:05:01;;;;;;;3.63;0.50;;;;;;;;;;4984104;28;20701;-60
2022/08/07 08:07:28;;;;;;;2.70;0.40;;;;;;;;;;4974422;28;20045;-59
2022/08/07 08:09:54;;;;;;;3.28;0.55;;;;;;;;;;4962600;28;20046;-60
2022/08/07 08:12:21;;;;;;;5.82;0.85;;;;;;;;;;4976607;28;20047;-61
2022/08/07 08:14:49;;;;;;;4.30;0.70;;;;;;;;;;4972811;28;20073;-60
2022/08/07 08:17:16;;;;;;;3.75;0.60;;;;;;;;;;4983797;28;20070;-60
2022/08/07 08:19:42;;;;;;;3.23;0.60;;;;;;;;;;4978589;28;20053;-62
2022/08/07 08:27:41;;;;;;;4.15;0.82;;;;;;;;;;4985039;28;20073;-60
2022/08/07 08:30:11;;;;;;;3.28;0.80;;;;;;;;;;4983363;28;20042;-60
2022/08/07 08:32:41;;;;;;;3.57;0.77;;;;;;;;;;4972610;28;20130;-60
2022/08/07 08:35:10;;;;;;;4.43;0.73;;;;;;;;;;4980096;28;20630;-60
2022/08/07 08:37:37;;;;;;;3.78;0.88;;;;;;;;;;4975028;28;20097;-59
2022/08/07 08:40:07;;;;;;;3.97;0.60;;;;;;;;;;4981506;28;20919;-60
2022/08/07 08:42:37;;;;;;;5.40;1.00;;;;;;;;;;4970809;28;20088;-60
2022/08/07 08:45:05;;;;;;;6.13;1.00;;;;;;;;;;4979949;28;20077;-61
2022/08/07 08:47:37;;;;;;;3.80;0.65;;;;;;;;;;4967047;28;20101;-58
2022/08/07 08:50:10;;;;;;;3.33;0.63;;;;;;;;;;4966772;28;20147;-63
2022/08/07 08:52:39;;;;;;;3.92;1.00;;;;;;;;;;4968649;28;20069;-64
2022/08/07 08:55:07;;;;;;;4.38;0.85;;;;;;;;;;4969606;28;20112;-61
2022/08/07 08:57:37;;;;;;;4.30;0.70;;;;;;;;;;4977624;28;20058;-60
2022/08/07 09:00:06;;;;;;;3.30;0.80;;;;;;;;;;4978428;28;20046;-61
2022/08/07 09:02:40;;;;;;;4.20;0.70;;;;;;;;;;4975566;28;20069;-59
2022/08/07 09:05:16;;;;;;;4.00;0.90;;;;;;;;;;4983995;28;20046;-64
2022/08/07 09:07:45;;;;;;;5.07;1.25;;;;;;;;;;4977112;28;20038;-60
2022/08/07 09:10:16;;;;;;;5.10;0.90;;;;;;;;;;4975047;28;20047;-62
2022/08/07 09:12:48;;;;;;;5.32;1.00;;;;;;;;;;4980709;28;20047;-60
2022/08/07 09:15:21;;;;;;;4.70;0.77;;;;;;;;;;4955571;28;20034;-61
2022/08/07 09:17:53;;;;;;;5.05;1.60;;;;;;;;;;4980344;28;20082;-60
2022/08/07 09:20:27;;;;;;;4.25;1.15;;;;;;;;;;4978491;28;20056;-59
2022/08/07 09:22:57;;;;;;;4.70;1.20;;;;;;;;;;4976153;28;20053;-58
2022/08/07 09:25:25;;;;;;;8.30;1.08;;;;;;;;;;4277675;28;10000753;-59
2022/08/07 09:27:55;;;;;;;5.20;1.08;;;;;;;;;;4950865;28;20074;-58
2022/08/07 09:30:23;;;;;;;5.05;1.42;;;;;;;;;;4974708;28;20093;-59
2022/08/07 09:33:00;;;;;;;5.05;1.30;;;;;;;;;;4978108;28;20050;-59
2022/08/07 09:35:37;;;;;;;4.57;1.40;;;;;;;;;;4970694;28;20053;-59
2022/08/07 09:38:10;;;;;;;5.15;1.30;;;;;;;;;;4960558;28;20551;-60
2022/08/07 09:40:40;;;;;;;6.18;1.20;;;;;;;;;;4974609;28;20536;-59
2022/08/07 09:43:12;;;;;;;6.53;1.08;;;;;;;;;;4967956;28;20046;-59
2022/08/07 09:45:42;;;;;;;4.72;1.15;;;;;;;;;;4964705;28;20046;-60
2022/08/07 09:48:19;;;;;;;3.83;1.27;;;;;;;;;;4974537;28;20043;-61
2022/08/07 09:50:50;;;;;;;4.88;0.98;;;;;;;;;;4967969;28;20050;-61
2022/08/07 09:53:18;;;;;;;4.78;1.50;;;;;;;;;;4609574;28;10000515;-59
2022/08/07 09:55:53;;;;;;;9.48;1.30;;;;;;;;;;4976673;28;20755;-59
2022/08/07 09:58:29;;;;;;;4.05;1.20;;;;;;;;;;4975138;28;20038;-59
2022/08/07 10:01:09;;;;;;;5.65;1.20;;;;;;;;;;4974678;28;20046;-59
2022/08/07 10:03:46;;;;;;;4.10;1.00;;;;;;;;;;4976487;28;20043;-59
2022/08/07 10:06:20;;;;;;;4.85;1.70;;;;;;;;;;4980584;28;20098;-59
2022/08/07 10:08:59;;;;;;;5.85;1.00;;;;;;;;;;4982622;28;20076;-60
2022/08/07 10:11:33;;;;;;;3.67;1.05;;;;;;;;;;4969516;28;20092;-59
2022/08/07 10:14:06;;;;;;;3.60;0.88;;;;;;;;;;4980651;28;20046;-60
2022/08/07 10:16:38;;;;;;;10.53;1.37;;;;;;;;;;4976801;28;21846;-59
2022/08/07 10:19:19;;;;;;;4.22;0.90;;;;;;;;;;4972682;28;20043;-61
2022/08/07 10:21:51;;;;;;;4.03;0.90;;;;;;;;;;4969352;28;20038;-60
2022/08/07 10:24:25;;;;;;;3.40;1.10;;;;;;;;;;4980003;28;20070;-59
2022/08/07 10:26:57;;;;;;;3.78;0.77;;;;;;;;;;4984388;28;20073;-56
2022/08/07 10:29:34;;;;;;;4.60;1.03;;;;;;;;;;4977344;28;20495;-59
2022/08/07 10:32:11;;;;;;;6.72;1.02;;;;;;;;;;4980247;28;20046;-60
2022/08/07 10:34:48;;;;;;;4.90;1.00;;;;;;;;;;4977627;28;20058;-60
2022/08/07 10:37:22;;;;;;;4.00;1.05;;;;;;;;;;4953800;28;20046;-59
2022/08/07 10:39:55;;;;;;;4.28;0.82;;;;;;;;;;4981549;28;20078;-61
2022/08/07 10:42:25;;;;;;;3.90;1.17;;;;;;;;;;4963244;28;20051;-60
2022/08/07 10:44:56;;;;;;;6.03;0.70;;;;;;;;;;4986175;28;20443;-60
2022/08/07 10:47:27;;;;;;;5.60;0.90;;;;;;;;;;4982132;28;20389;-60
2022/08/07 10:49:58;;;;;;;3.22;0.93;;;;;;;;;;4980960;28;20050;-60
2022/08/07 10:52:28;;;;;;;5.68;1.05;;;;;;;;;;4974804;28;20061;-60
2022/08/07 10:54:57;;;;;;;4.53;1.17;;;;;;;;;;4982269;28;20061;-59
2022/08/07 10:57:26;;;;;;;3.47;0.98;;;;;;;;;;4969259;28;20161;-60
2022/08/07 11:00:01;;;;;;;3.55;1.08;;;;;;;;;;4966890;28;20113;-59
2022/08/07 11:02:29;;;;;;;4.50;0.95;;;;;;;;;;4968828;28;20034;-59
2022/08/07 11:05:05;;;;;;;4.82;1.00;;;;;;;;;;4982878;28;20049;-60
2022/08/07 11:07:36;;;;;;;3.20;0.70;;;;;;;;;;4972445;28;20096;-56
2022/08/07 11:10:05;;;;;;;3.80;0.85;;;;;;;;;;4966930;28;20077;-60
2022/08/07 11:12:36;;;;;;;4.90;1.08;;;;;;;;;;4968652;28;20050;-56
2022/08/07 11:15:04;;;;;;;5.32;1.05;;;;;;;;;;4950329;28;20040;-60
2022/08/07 11:17:33;;;;;;;4.53;1.05;;;;;;;;;;4940768;28;20030;-63
2022/08/07 11:20:03;;;;;;;5.27;1.00;;;;;;;;;;4976594;28;20078;-61
2022/08/07 11:22:33;;;;;;;3.47;0.70;;;;;;;;;;4973694;28;20034;-62
2022/08/07 11:25:03;;;;;;;5.68;0.80;;;;;;;;;;4976897;28;20046;-64
2022/08/07 11:27:32;;;;;;;4.00;0.90;;;;;;;;;;4982466;28;20042;-61
2022/08/07 11:30:00;;;;;;;4.43;1.15;;;;;;;;;;4978038;28;20042;-60
2022/08/07 11:32:30;;;;;;;4.77;1.27;;;;;;;;;;4979344;28;20046;-62
2022/08/07 11:34:58;;;;;;;4.20;1.67;;;;;;;;;;4964647;28;20044;-63
2022/08/07 11:37:35;;;;;;;3.97;0.80;;;;;;;;;;4973999;28;20053;-59
2022/08/07 11:40:10;;;;;;;5.00;1.35;;;;;;;;;;4974073;28;20030;-60
2022/08/07 11:42:41;;;;;;;3.92;1.10;;;;;;;;;;4968434;28;20039;-61
2022/08/07 11:45:15;;;;;;;4.03;1.00;;;;;;;;;;4967770;28;20054;-61
2022/08/07 11:47:52;;;;;;;4.72;0.90;;;;;;;;;;4974877;28;20556;-62
2022/08/07 11:50:28;;;;;;;4.90;0.88;;;;;;;;;;4949370;28;20243;-61
2022/08/07 11:53:10;;;;;;;5.15;1.20;;;;;;;;;;4942442;28;20043;-62
2022/08/07 11:55:46;;;;;;;4.72;0.80;;;;;;;;;;4279537;28;10001207;-61
2022/08/07 11:58:16;;;;;;;4.17;1.17;;;;;;;;;;4968094;28;20046;-58
2022/08/07 12:00:49;;;;;;;4.57;0.90;;;;;;;;;;4976305;28;21170;-63
2022/08/07 12:03:37;;;;;;;3.42;0.90;;;;;;;;;;4986191;28;20069;-61
2022/08/07 12:06:12;;;;;;;5.70;1.40;;;;;;;;;;4968221;28;20248;-61
2022/08/07 12:08:41;;;;;;;3.88;0.90;;;;;;;;;;4974966;28;20389;-63
2022/08/07 12:11:10;;;;;;;3.97;0.90;;;;;;;;;;4987029;28;20038;-63
2022/08/07 12:13:40;;;;;;;3.22;0.70;;;;;;;;;;4964479;28;20563;-61
2022/08/07 12:16:11;;;;;;;4.07;0.82;;;;;;;;;;4984155;28;20045;-60
2022/08/07 12:18:40;;;;;;;4.20;1.00;;;;;;;;;;4975802;28;20042;-61
2022/08/07 12:21:14;;;;;;;3.92;1.10;;;;;;;;;;4981316;28;20057;-62
2022/08/07 12:23:44;;;;;;;4.97;1.10;;;;;;;;;;4982683;28;20042;-61
2022/08/07 12:26:13;;;;;;;3.60;0.88;;;;;;;;;;4977130;28;20077;-59
2022/08/07 12:28:43;;;;;;;3.92;1.10;;;;;;;;;;4980662;28;20492;-59
2022/08/07 12:31:13;;;;;;;3.97;0.90;;;;;;;;;;4972473;28;20038;-63
2022/08/07 12:33:40;;;;;;;4.22;1.13;;;;;;;;;;4981870;28;20705;-61
2022/08/07 12:36:09;;;;;;;5.50;1.27;;;;;;;;;;4970378;28;20062;-61
2022/08/07 12:38:38;;;;;;;3.60;0.85;;;;;;;;;;4985408;28;20704;-60
2022/08/07 12:41:07;;;;;;;4.47;1.20;;;;;;;;;;4974621;28;20050;-61
2022/08/07 12:43:34;;;;;;;3.75;0.95;;;;;;;;;;4977847;28;20038;-60
2022/08/07 12:46:19;;;;;;;4.07;1.15;;;;;;;;;;4980827;28;20042;-61
2022/08/07 12:48:50;;;;;;;4.20;1.20;;;;;;;;;;4969767;28;20050;-64
2022/08/07 12:51:18;;;;;;;3.70;1.17;;;;;;;;;;4977239;28;20058;-62
2022/08/07 12:53:50;;;;;;;3.50;1.00;;;;;;;;;;4975132;28;20047;-62
2022/08/07 12:56:24;;;;;;;3.75;0.90;;;;;;;;;;4985686;28;20101;-60
2022/08/07 12:58:51;;;;;;;4.53;1.08;;;;;;;;;;4956419;28;20056;-61
2022/08/07 13:01:24;;;;;;;3.57;0.97;;;;;;;;;;4981361;28;20046;-60
2022/08/07 13:04:10;;;;;;;4.45;1.20;;;;;;;;;;4956784;28;20046;-61
2022/08/07 13:06:44;;;;;;;3.13;0.82;;;;;;;;;;4978809;28;20104;-60
2022/08/07 13:09:13;;;;;;;3.93;0.93;;;;;;;;;;4618570;28;10001081;-61
2022/08/07 13:11:48;;;;;;;3.47;0.85;;;;;;;;;;4972491;28;20113;-60
2022/08/07 13:14:19;;;;;;;3.13;0.90;;;;;;;;;;4975324;28;20568;-61
2022/08/07 13:16:48;;;;;;;4.80;1.10;;;;;;;;;;4945073;28;20053;-60
2022/08/07 13:19:21;;;;;;;4.63;1.00;;;;;;;;;;4973373;28;20107;-62
2022/08/07 13:21:52;;;;;;;3.40;0.88;;;;;;;;;;4974304;28;20057;-61
2022/08/07 13:24:21;;;;;;;4.97;1.42;;;;;;;;;;4963302;28;20115;-64
2022/08/07 13:26:53;;;;;;;3.83;0.77;;;;;;;;;;4969381;28;20054;-61
2022/08/07 13:29:22;;;;;;;3.30;0.98;;;;;;;;;;4627932;28;10000771;-61
2022/08/07 13:31:52;;;;;;;3.78;1.05;;;;;;;;;;4976872;28;20042;-61
2022/08/07 13:34:23;;;;;;;3.20;0.98;;;;;;;;;;4957365;28;20078;-62
2022/08/07 13:36:52;;;;;;;3.45;1.00;;;;;;;;;;4978631;28;20042;-59
2022/08/07 13:39:26;;;;;;;3.80;1.10;;;;;;;;;;4970855;28;20515;-62
2022/08/07 13:41:54;;;;;;;3.30;0.63;;;;;;;;;;4980163;28;20053;-60
2022/08/07 13:44:21;;;;;;;4.20;0.98;;;;;;;;;;4971027;28;20041;-61
2022/08/07 13:46:53;;;;;;;3.40;0.80;;;;;;;;;;4986585;28;20046;-63
2022/08/07 13:49:20;;;;;;;5.82;0.88;;;;;;;;;;4964856;28;20042;-60
2022/08/07 13:51:48;;;;;;;3.00;0.90;;;;;;;;;;4958172;28;20142;-61
2022/08/07 13:54:15;;;;;;;3.42;0.93;;;;;;;;;;4971785;28;20065;-60
2022/08/07 13:56:43;;;;;;;3.75;1.00;;;;;;;;;;4981994;28;20069;-64
2022/08/07 13:59:11;;;;;;;2.78;0.70;;;;;;;;;;4963494;28;20042;-65
2022/08/07 14:01:44;;;;;;;4.63;1.08;;;;;;;;;;4987222;28;20066;-61
2022/08/07 14:04:12;;;;;;;3.87;1.10;;;;;;;;;;4970525;28;20042;-61
2022/08/07 14:06:40;;;;;;;4.45;0.90;;;;;;;;;;4960706;28;20046;-66
2022/08/07 14:09:08;;;;;;;4.47;0.88;;;;;;;;;;4973220;28;20554;-61
2022/08/07 14:11:41;;;;;;;3.65;0.90;;;;;;;;;;4982111;28;20045;-63
2022/08/07 14:14:08;;;;;;;5.38;0.98;;;;;;;;;;4977771;28;20046;-61
2022/08/07 14:16:39;;;;;;;3.43;1.00;;;;;;;;;;4971721;28;20053;-61
2022/08/07 14:19:14;;;;;;;3.58;0.90;;;;;;;;;;4982578;28;20048;-60
2022/08/07 14:21:42;;;;;;;2.53;0.70;;;;;;;;;;4975055;28;20046;-62
2022/08/07 14:24:13;;;;;;;4.97;1.17;;;;;;;;;;4980675;28;20038;-62
2022/08/07 14:26:41;;;;;;;4.68;1.30;;;;;;;;;;4950690;28;20057;-63
2022/08/07 14:29:10;;;;;;;4.43;1.27;;;;;;;;;;4984054;28;20030;-61
2022/08/07 14:31:39;;;;;;;3.40;1.20;;;;;;;;;;4978657;28;20030;-63
2022/08/07 14:34:07;;;;;;;3.45;0.80;;;;;;;;;;4977082;28;20047;-62
2022/08/07 14:36:34;;;;;;;4.32;1.23;;;;;;;;;;4974221;28;20629;-60
2022/08/07 14:39:02;;;;;;;3.78;1.13;;;;;;;;;;4979407;28;20046;-62
2022/08/07 14:41:31;;;;;;;3.17;1.13;;;;;;;;;;4981215;28;20094;-62
2022/08/07 14:43:58;;;;;;;3.38;1.20;;;;;;;;;;4979728;28;20066;-60
2022/08/07 14:46:26;;;;;;;4.00;0.90;;;;;;;;;;4965906;28;20113;-60
2022/08/07 14:48:55;;;;;;;3.95;1.10;;;;;;;;;;4972784;28;20201;-57
2022/08/07 14:51:26;;;;;;;3.13;1.10;;;;;;;;;;4973480;28;21310;-62
2022/08/07 14:53:53;;;;;;;4.90;1.13;;;;;;;;;;4986860;28;20038;-59
2022/08/07 14:56:21;;;;;;;3.45;0.95;;;;;;;;;;4962960;28;20046;-60
2022/08/07 14:58:50;;;;;;;4.35;1.05;;;;;;;;;;4977421;28;20046;-60
2022/08/07 15:01:18;;;;;;;4.45;1.10;;;;;;;;;;4979479;28;20046;-60